.
WxDataArchive / Data Records for 2011-12-24
2011-12-23 December 2011 2011-12-25

Data Records for Saturday, 24 December 2011

Time	Temp	Chill	HIndex	Humid	Dewpt	 Wind 	HiWind	WindDir	Rain 	Barom 
-----	----	-----	------	-----	-----	------	------	-------	-----	----- 
00:00	32.9	32.9	32.9	75	25.9	1	3	270	0.00	30.279 
00:05	32.8	32.8	32.8	76	26.1	1	3	292	0.00	30.279 
00:10	32.5	32.5	32.5	75	25.5	3	9	248	0.00	30.279 
00:15	32.4	32.4	32.4	73	24.7	3	9	248	0.00	30.285 
00:20	32.2	32.2	32.2	73	24.5	3	7	248	0.00	30.285 
00:25	32.1	32.1	32.1	72	24.1	3	6	248	0.00	30.285 
00:30	31.9	31.9	31.9	72	23.9	3	6	248	0.00	30.291 
00:35	31.9	28.0	31.9	72	23.9	4	7	270	0.00	30.291 
00:40	31.9	31.9	31.9	72	23.9	3	7	225	0.00	30.291 
00:45	31.8	31.8	31.8	73	24.1	2	6	248	0.00	30.293 
00:50	31.8	31.8	31.8	73	24.1	2	5	225	0.00	30.293 
00:55	31.6	31.6	31.6	72	23.6	2	5	248	0.00	30.293 
01:00	31.5	31.5	31.5	71	23.2	2	4	248	0.00	30.295 
01:05	31.3	31.3	31.3	72	23.3	2	5	248	0.00	30.295 
01:10	31.3	31.3	31.3	73	23.7	2	4	248	0.00	30.295 
01:15	31.2	31.2	31.2	73	23.6	1	4	270	0.00	30.300 
01:20	31.0	31.0	31.0	73	23.4	2	5	270	0.00	30.300 
01:25	30.9	30.9	30.9	73	23.3	3	6	270	0.00	30.300 
01:30	30.7	30.7	30.7	74	23.4	3	5	270	0.00	30.310 
01:35	30.6	30.6	30.6	76	24.0	2	5	270	0.00	30.310 
01:40	30.6	30.6	30.6	77	24.3	2	4	270	0.00	30.310 
01:45	30.4	30.4	30.4	78	24.4	2	4	248	0.00	30.309 
01:50	30.3	30.3	30.3	78	24.3	3	6	248	0.00	30.309 
01:55	30.3	30.3	30.3	78	24.3	2	5	270	0.00	30.309 
02:00	30.1	30.1	30.1	79	24.4	2	5	270	0.00	30.312 
02:05	30.1	30.1	30.1	79	24.4	2	4	270	0.00	30.312 
02:10	30.1	30.1	30.1	79	24.4	1	5	248	0.00	30.312 
02:15	30.0	30.0	30.0	79	24.3	1	3	248	0.00	30.323 
02:20	30.1	30.1	30.1	80	24.7	1	4	248	0.00	30.323 
02:25	30.0	30.0	30.0	80	24.6	1	3	248	0.00	30.323 
02:30	29.8	29.8	29.8	80	24.4	2	5	270	0.00	30.324 
02:35	29.7	29.7	29.7	79	24.0	3	6	270	0.00	30.324 
02:40	29.5	29.5	29.5	78	23.5	2	4	270	0.00	30.324 
02:45	29.5	29.5	29.5	78	23.5	2	5	270	0.00	30.334 
02:50	29.4	29.4	29.4	78	23.4	2	3	248	0.00	30.334 
02:55	29.4	29.4	29.4	78	23.4	1	3	248	0.00	30.334 
03:00	29.4	29.4	29.4	78	23.4	2	4	270	0.00	30.343 
03:05	29.4	29.4	29.4	78	23.4	2	4	270	0.00	30.343 
03:10	29.4	29.4	29.4	78	23.4	1	4	270	0.00	30.343 
03:15	29.4	29.4	29.4	78	23.4	1	3	270	0.00	30.353 
03:20	29.4	29.4	29.4	78	23.4	1	2	248	0.00	30.353 
03:25	29.4	29.4	29.4	78	23.4	1	4	270	0.00	30.353 
03:30	29.4	29.4	29.4	78	23.4	0	2	270	0.00	30.355 
03:35	29.4	29.4	29.4	78	23.4	1	3	270	0.00	30.355 
03:40	29.5	29.5	29.5	78	23.5	0	2	270	0.00	30.355 
03:45	29.5	29.5	29.5	78	23.5	0	2	270	0.00	30.353 
03:50	29.4	29.4	29.4	78	23.4	0	1	270	0.00	30.353 
03:55	29.4	29.4	29.4	78	23.4	0	1	270	0.00	30.353 
04:00	29.4	29.4	29.4	78	23.4	0	2	270	0.00	30.348 
04:05	29.4	29.4	29.4	79	23.7	0	2	270	0.00	30.348 
04:10	29.3	29.3	29.3	79	23.6	0	1	270	0.00	30.348 
04:15	29.3	29.3	29.3	79	23.6	0	2	270	0.00	30.351 
04:20	29.3	29.3	29.3	79	23.6	0	2	270	0.00	30.351 
04:25	29.1	29.1	29.1	80	23.7	0	2	270	0.00	30.351 
04:30	29.1	29.1	29.1	80	23.7	0	1	270	0.00	30.356 
04:35	29.0	29.0	29.0	80	23.6	0	1	270	0.00	30.356 
04:40	29.0	29.0	29.0	80	23.6	0	1	270	0.00	30.356 
04:45	28.8	28.8	28.8	80	23.4	0	2	270	0.00	30.357 
04:50	28.8	28.8	28.8	80	23.4	0	2	270	0.00	30.357 
04:55	28.8	28.8	28.8	80	23.4	0	0	---	0.00	30.357 
05:00	28.7	28.7	28.7	80	23.3	0	0	---	0.00	30.358 
05:05	28.7	28.7	28.7	81	23.6	0	1	270	0.00	30.358 
05:10	28.5	28.5	28.5	81	23.4	0	0	---	0.00	30.358 
05:15	28.4	28.4	28.4	81	23.3	0	1	270	0.00	30.362 
05:20	28.4	28.4	28.4	81	23.3	0	1	270	0.00	30.362 
05:25	28.2	28.2	28.2	81	23.1	0	1	270	0.00	30.362 
05:30	28.2	28.2	28.2	81	23.1	0	0	---	0.00	30.367 
05:35	28.1	28.1	28.1	82	23.3	0	0	---	0.00	30.367 
05:40	27.8	27.8	27.8	82	23.0	0	0	---	0.00	30.367 
05:45	27.6	27.6	27.6	82	22.8	0	0	---	0.00	30.371 
05:50	27.5	27.5	27.5	82	22.7	0	0	---	0.00	30.371 
05:55	27.2	27.2	27.2	83	22.7	0	0	---	0.00	30.371 
06:00	27.0	27.0	27.0	83	22.5	0	0	---	0.00	30.375 
06:05	26.7	26.7	26.7	83	22.2	0	0	---	0.00	30.375 
06:10	26.6	26.6	26.6	83	22.1	0	0	---	0.00	30.375 
06:15	26.3	26.3	26.3	84	22.1	0	0	---	0.00	30.377 
06:20	26.1	26.1	26.1	84	21.9	0	0	---	0.00	30.377 
06:25	26.0	26.0	26.0	84	21.8	0	0	---	0.00	30.377 
06:30	25.8	25.8	25.8	84	21.6	0	0	---	0.00	30.380 
06:35	25.7	25.7	25.7	85	21.8	0	0	---	0.00	30.380 
06:40	25.7	25.7	25.7	85	21.8	0	0	---	0.00	30.380 
06:45	25.6	25.6	25.6	85	21.7	0	0	---	0.00	30.386 
06:50	25.4	25.4	25.4	86	21.8	0	0	---	0.00	30.386 
06:55	25.3	25.3	25.3	86	21.7	0	0	---	0.00	30.386 
07:00	25.3	25.3	25.3	86	21.7	0	0	---	0.00	30.391 
07:05	25.1	25.1	25.1	87	21.8	0	0	---	0.00	30.391 
07:10	25.1	25.1	25.1	87	21.8	0	0	---	0.00	30.391 
07:15	25.0	25.0	25.0	87	21.7	0	0	---	0.00	30.394 
07:20	25.0	25.0	25.0	87	21.7	0	0	---	0.00	30.394 
07:25	25.0	25.0	25.0	88	22.0	0	0	---	0.00	30.394 
07:30	24.8	24.8	24.8	88	21.8	0	0	---	0.00	30.395 
07:35	24.8	24.8	24.8	88	21.8	0	0	---	0.00	30.395 
07:40	24.7	24.7	24.7	88	21.7	0	0	---	0.00	30.395 
07:45	24.5	24.5	24.5	88	21.5	0	0	---	0.00	30.396 
07:50	24.4	24.4	24.4	88	21.4	0	0	---	0.00	30.396 
07:55	24.2	24.2	24.2	88	21.2	0	0	---	0.00	30.396 
08:00	24.1	24.1	24.1	88	21.1	0	0	---	0.00	30.403 
08:05	23.9	23.9	23.9	88	20.9	0	0	---	0.00	30.403 
08:10	23.8	23.8	23.8	88	20.8	0	0	---	0.00	30.403 
08:15	23.6	23.6	23.6	88	20.6	0	0	---	0.00	30.409 
08:20	23.6	23.6	23.6	88	20.6	0	0	---	0.00	30.409 
08:25	23.6	23.6	23.6	88	20.6	0	0	---	0.00	30.409 
08:30	23.6	23.6	23.6	88	20.6	0	0	---	0.00	30.408 
08:35	23.8	23.8	23.8	89	21.0	0	0	---	0.00	30.408 
08:40	24.1	24.1	24.1	89	21.3	0	0	---	0.00	30.408 
08:45	24.2	24.2	24.2	90	21.7	0	0	---	0.00	30.403 
08:50	24.4	24.4	24.4	90	21.9	0	0	---	0.00	30.403 
08:55	24.8	24.8	24.8	90	22.3	0	0	---	0.00	30.403 
09:00	25.0	25.0	25.0	90	22.5	0	0	---	0.00	30.396 
09:05	25.3	25.3	25.3	90	22.8	0	0	---	0.00	30.396 
09:10	25.7	25.7	25.7	91	23.4	0	0	---	0.00	30.396 
09:15	26.3	26.3	26.3	91	24.0	0	1	270	0.00	30.405 
09:20	26.9	26.9	26.9	91	24.6	0	2	270	0.00	30.405 
09:25	27.5	27.5	27.5	91	25.2	0	1	270	0.00	30.405 
09:30	27.8	27.8	27.8	91	25.5	0	2	270	0.00	30.404 
09:35	28.2	28.2	28.2	90	25.7	0	3	270	0.00	30.404 
09:40	28.7	28.7	28.7	90	26.1	0	2	270	0.00	30.404 
09:45	29.0	29.0	29.0	90	26.4	1	3	45	0.00	30.404 
09:50	29.3	29.3	29.3	89	26.5	0	2	270	0.00	30.404 
09:55	29.5	29.5	29.5	89	26.7	0	3	270	0.00	30.404 
10:00	29.7	29.7	29.7	88	26.6	1	4	270	0.00	30.399 
10:05	30.0	30.0	30.0	87	26.6	0	2	90	0.00	30.399 
10:10	30.1	30.1	30.1	86	26.4	1	3	90	0.00	30.399 
10:15	30.3	30.3	30.3	85	26.3	1	3	248	0.00	30.402 
10:20	30.6	30.6	30.6	85	26.6	0	2	248	0.00	30.402 
10:25	30.9	30.9	30.9	84	26.6	0	3	248	0.00	30.402 
10:30	30.9	30.9	30.9	83	26.4	1	3	248	0.00	30.399 
10:35	31.2	31.2	31.2	82	26.4	0	3	248	0.00	30.399 
10:40	31.3	31.3	31.3	81	26.2	1	4	248	0.00	30.399 
10:45	31.6	31.6	31.6	80	26.2	1	3	248	0.00	30.398 
10:50	31.8	31.8	31.8	78	25.7	1	3	248	0.00	30.398 
10:55	32.1	32.1	32.1	77	25.7	1	3	135	0.00	30.398 
11:00	32.2	32.2	32.2	76	25.5	2	5	90	0.00	30.391 
11:05	32.5	32.5	32.5	76	25.8	1	4	90	0.00	30.391 
11:10	32.5	32.5	32.5	75	25.5	1	4	68	0.00	30.391 
11:15	32.5	32.5	32.5	75	25.5	1	3	248	0.00	30.385 
11:20	32.8	32.8	32.8	75	25.8	0	4	270	0.00	30.385 
11:25	32.9	32.9	32.9	73	25.2	1	5	270	0.00	30.385 
11:30	33.1	33.1	33.1	72	25.1	2	4	90	0.00	30.378 
11:35	33.2	33.2	33.2	72	25.2	2	5	112	0.00	30.378 
11:40	33.4	33.4	33.4	71	25.0	2	5	90	0.00	30.378 
11:45	33.4	33.4	33.4	70	24.7	3	7	90	0.00	30.366 
11:50	33.5	33.5	33.5	70	24.8	2	5	90	0.00	30.366 
11:55	33.8	33.8	33.8	71	25.4	1	3	135	0.00	30.366 
12:00	33.7	33.7	33.7	70	25.0	2	4	248	0.00	30.357 
12:05	33.7	33.7	33.7	70	25.0	1	5	270	0.00	30.357 
12:10	34.0	34.0	34.0	69	24.9	1	4	225	0.00	30.357 
12:15	34.3	34.3	34.3	69	25.2	1	4	90	0.00	30.353 
12:20	34.4	34.4	34.4	69	25.3	1	4	270	0.00	30.353 
12:25	34.7	34.7	34.7	69	25.6	1	7	90	0.00	30.353 
12:30	34.9	34.9	34.9	68	25.4	1	4	112	0.00	30.352 
12:35	34.9	34.9	34.9	67	25.1	1	4	112	0.00	30.352 
12:40	34.9	34.9	34.9	66	24.7	2	9	248	0.00	30.352 
12:45	35.0	35.0	35.0	66	24.8	2	6	248	0.00	30.346 
12:50	35.0	35.0	35.0	65	24.4	1	6	248	0.00	30.346 
12:55	35.2	35.2	35.2	65	24.6	2	5	248	0.00	30.346 
13:00	35.5	35.5	35.5	66	25.3	1	4	270	0.00	30.343 
13:05	35.5	35.5	35.5	64	24.5	2	6	270	0.00	30.343 
13:10	35.3	35.3	35.3	64	24.4	2	6	248	0.00	30.343 
13:15	35.5	35.5	35.5	64	24.5	2	5	248	0.00	30.338 
13:20	35.8	35.8	35.8	65	25.2	1	5	248	0.00	30.338 
13:25	35.8	35.8	35.8	64	24.8	1	6	270	0.00	30.338 
13:30	36.0	36.0	36.0	63	24.6	2	7	248	0.00	30.332 
13:35	36.0	36.0	36.0	63	24.6	2	5	248	0.00	30.332 
13:40	36.0	36.0	36.0	64	25.0	2	7	248	0.00	30.332 
13:45	36.3	36.3	36.3	63	24.9	1	5	248	0.00	30.328 
13:50	36.5	36.5	36.5	62	24.7	2	5	248	0.00	30.328 
13:55	36.6	36.6	36.6	62	24.8	1	4	315	0.00	30.328 
14:00	36.8	36.8	36.8	62	25.0	2	5	248	0.00	30.322 
14:05	36.9	36.9	36.9	62	25.1	2	6	248	0.00	30.322 
14:10	36.9	36.9	36.9	61	24.7	2	6	248	0.00	30.322 
14:15	37.2	37.2	37.2	61	25.0	2	5	248	0.00	30.321 
14:20	37.3	37.3	37.3	61	25.1	1	4	248	0.00	30.321 
14:25	37.5	37.5	37.5	60	24.9	1	4	248	0.00	30.321 
14:30	37.6	37.6	37.6	60	25.0	1	4	112	0.00	30.315 
14:35	37.9	37.9	37.9	58	24.5	2	5	248	0.00	30.315 
14:40	37.9	37.9	37.9	56	23.6	2	11	248	0.00	30.315 
14:45	37.9	37.9	37.9	57	24.0	2	5	248	0.00	30.306 
14:50	37.9	37.9	37.9	57	24.0	2	5	225	0.00	30.306 
14:55	37.9	37.9	37.9	57	24.0	2	10	248	0.00	30.306 
15:00	37.8	37.8	37.8	57	24.0	3	9	248	0.00	30.304 
15:05	37.8	37.8	37.8	58	24.4	2	7	248	0.00	30.304 
15:10	37.9	37.9	37.9	58	24.5	1	6	248	0.00	30.304 
15:15	38.0	38.0	38.0	58	24.6	1	5	248	0.00	30.295 
15:20	38.2	38.2	38.2	58	24.7	1	4	248	0.00	30.295 
15:25	38.2	38.2	38.2	57	24.3	2	6	248	0.00	30.295 
15:30	38.3	38.3	38.3	58	24.8	1	4	248	0.00	30.291 
15:35	38.6	38.6	38.6	58	25.1	2	6	248	0.00	30.291 
15:40	38.6	38.6	38.6	56	24.3	3	7	225	0.00	30.291 
15:45	38.5	38.5	38.5	57	24.6	2	7	248	0.00	30.288 
15:50	38.3	38.3	38.3	57	24.4	2	6	270	0.00	30.288 
15:55	38.2	38.2	38.2	58	24.7	2	6	225	0.00	30.288 
16:00	38.2	38.2	38.2	58	24.7	2	6	248	0.00	30.294 
16:05	38.0	38.0	38.0	59	25.0	1	4	248	0.00	30.294 
16:10	38.0	38.0	38.0	59	25.0	2	6	248	0.00	30.294 
16:15	37.9	37.9	37.9	59	24.9	2	5	248	0.00	30.293 
16:20	37.8	37.8	37.8	59	24.8	2	6	248	0.00	30.293 
16:25	37.6	37.6	37.6	59	24.6	2	6	248	0.00	30.293 
16:30	37.6	37.6	37.6	59	24.6	1	3	225	0.00	30.291 
16:35	37.5	37.5	37.5	59	24.5	1	4	248	0.00	30.291 
16:40	37.3	37.3	37.3	59	24.3	2	5	248	0.00	30.291 
16:45	37.2	37.2	37.2	60	24.6	1	2	248	0.00	30.288 
16:50	37.0	37.0	37.0	61	24.8	1	4	248	0.00	30.288 
16:55	36.9	36.9	36.9	61	24.7	1	4	248	0.00	30.288 
17:00	36.8	36.8	36.8	62	25.0	1	3	248	0.00	30.287 
17:05	36.6	36.6	36.6	62	24.8	0	2	248	0.00	30.287 
17:10	36.5	36.5	36.5	63	25.1	1	3	248	0.00	30.287 
17:15	36.3	36.3	36.3	63	24.9	0	3	248	0.00	30.289 
17:20	36.2	36.2	36.2	64	25.2	0	2	248	0.00	30.289 
17:25	35.9	35.9	35.9	64	24.9	0	2	248	0.00	30.289 
17:30	35.8	35.8	35.8	65	25.2	0	3	248	0.00	30.293 
17:35	35.6	35.6	35.6	65	25.0	1	3	248	0.00	30.293 
17:40	35.6	35.6	35.6	65	25.0	1	5	248	0.00	30.293 
17:45	35.5	35.5	35.5	65	24.9	0	2	248	0.00	30.294 
17:50	35.3	35.3	35.3	66	25.1	0	3	248	0.00	30.294 
17:55	35.2	35.2	35.2	66	25.0	0	2	248	0.00	30.294 
18:00	35.0	35.0	35.0	67	25.2	0	2	248	0.00	30.295 
18:05	34.9	34.9	34.9	67	25.1	0	3	248	0.00	30.295 
18:10	34.9	34.9	34.9	68	25.4	0	2	248	0.00	30.295 
18:15	34.7	34.7	34.7	69	25.6	0	2	248	0.00	30.305 
18:20	34.6	34.6	34.6	69	25.5	0	1	248	0.00	30.305 
18:25	34.4	34.4	34.4	70	25.6	0	1	248	0.00	30.305 
18:30	34.1	34.1	34.1	70	25.4	0	2	248	0.00	30.305 
18:35	34.0	34.0	34.0	71	25.6	0	1	248	0.00	30.305 
18:40	33.7	33.7	33.7	71	25.3	0	0	---	0.00	30.305 
18:45	33.4	33.4	33.4	72	25.4	0	0	---	0.00	30.297 
18:50	33.2	33.2	33.2	73	25.5	0	0	---	0.00	30.297 
18:55	32.9	32.9	32.9	73	25.2	0	0	---	0.00	30.297 
19:00	32.8	32.8	32.8	74	25.4	0	0	---	0.00	30.299 
19:05	32.5	32.5	32.5	74	25.2	0	0	---	0.00	30.299 
19:10	32.2	32.2	32.2	75	25.2	0	0	---	0.00	30.299 
19:15	32.1	32.1	32.1	76	25.4	0	0	---	0.00	30.305 
19:20	31.9	31.9	31.9	77	25.5	0	0	---	0.00	30.305 
19:25	31.8	31.8	31.8	77	25.4	0	0	---	0.00	30.305 
19:30	31.8	31.8	31.8	78	25.7	0	1	248	0.00	30.305 
19:35	31.8	31.8	31.8	78	25.7	0	1	248	0.00	30.305 
19:40	31.6	31.6	31.6	78	25.5	0	0	---	0.00	30.305 
19:45	31.5	31.5	31.5	78	25.4	0	0	---	0.00	30.300 
19:50	31.3	31.3	31.3	79	25.6	0	1	248	0.00	30.300 
19:55	31.2	31.2	31.2	79	25.5	0	1	248	0.00	30.300 
20:00	31.0	31.0	31.0	80	25.6	0	1	248	0.00	30.293 
20:05	31.0	31.0	31.0	80	25.6	0	0	---	0.00	30.293 
20:10	31.0	31.0	31.0	81	25.9	0	2	248	0.00	30.293 
20:15	31.2	31.2	31.2	81	26.1	0	2	248	0.00	30.284 
20:20	31.2	31.2	31.2	81	26.1	0	2	248	0.00	30.284 
20:25	31.5	31.5	31.5	81	26.4	0	2	248	0.00	30.284 
20:30	31.6	31.6	31.6	81	26.5	0	1	248	0.00	30.284 
20:35	31.9	31.9	31.9	81	26.7	1	3	248	0.00	30.284 
20:40	32.2	32.2	32.2	80	26.7	1	2	248	0.00	30.284 
20:45	32.4	32.4	32.4	80	26.9	0	2	248	0.00	30.278 
20:50	32.5	32.5	32.5	79	26.7	1	4	248	0.00	30.278 
20:55	32.7	32.7	32.7	79	26.9	1	4	248	0.00	30.278 
21:00	32.8	32.8	32.8	78	26.7	1	4	248	0.00	30.267 
21:05	32.9	32.9	32.9	78	26.8	1	3	248	0.00	30.267 
21:10	32.9	32.9	32.9	77	26.5	1	4	248	0.00	30.267 
21:15	32.9	32.9	32.9	77	26.5	0	2	248	0.00	30.261 
21:20	32.9	32.9	32.9	77	26.5	0	3	248	0.00	30.261 
21:25	32.8	32.8	32.8	77	26.4	0	1	248	0.00	30.261 
21:30	32.7	32.7	32.7	78	26.6	1	3	248	0.00	30.256 
21:35	32.7	32.7	32.7	78	26.6	1	3	248	0.00	30.256 
21:40	32.7	32.7	32.7	78	26.6	0	3	248	0.00	30.256 
21:45	32.7	32.7	32.7	78	26.6	1	5	248	0.00	30.246 
21:50	32.7	32.7	32.7	78	26.6	1	4	248	0.00	30.246 
21:55	32.7	32.7	32.7	78	26.6	1	5	248	0.00	30.246 
22:00	32.7	32.7	32.7	78	26.6	1	3	248	0.00	30.249 
22:05	32.7	32.7	32.7	78	26.6	1	4	270	0.00	30.249 
22:10	32.7	32.7	32.7	78	26.6	0	2	270	0.00	30.249 
22:15	32.7	32.7	32.7	78	26.6	1	4	248	0.00	30.249 
22:20	32.8	32.8	32.8	78	26.7	1	4	248	0.00	30.249 
22:25	32.8	32.8	32.8	78	26.7	1	4	248	0.00	30.249 
22:30	32.8	32.8	32.8	78	26.7	1	3	225	0.00	30.244 
22:35	32.8	32.8	32.8	78	26.7	1	4	248	0.00	30.244 
22:40	32.8	32.8	32.8	78	26.7	1	4	248	0.00	30.244 
22:45	32.9	32.9	32.9	78	26.8	1	3	248	0.00	30.245 
22:50	32.8	32.8	32.8	78	26.7	1	4	248	0.00	30.245 
22:55	32.9	32.9	32.9	78	26.8	1	5	248	0.00	30.245 
23:00	32.9	32.9	32.9	78	26.8	1	4	270	0.00	30.245 
23:05	32.9	32.9	32.9	77	26.5	1	4	270	0.00	30.245 
23:10	33.1	33.1	33.1	77	26.7	2	7	270	0.00	30.245 
23:15	33.2	33.2	33.2	77	26.8	2	6	248	0.00	30.243 
23:20	33.2	33.2	33.2	77	26.8	2	6	248	0.00	30.243 
23:25	33.4	33.4	33.4	76	26.7	2	4	270	0.00	30.243 
23:30	33.2	33.2	33.2	76	26.5	1	3	270	0.00	30.244 
23:35	33.2	33.2	33.2	76	26.5	2	6	248	0.00	30.244 
23:40	33.2	33.2	33.2	77	26.8	2	6	248	0.00	30.244 
23:45	33.2	33.2	33.2	76	26.5	1	6	248	0.00	30.246 
23:50	33.2	33.2	33.2	77	26.8	1	6	248	0.00	30.246 
23:55	33.1	33.1	33.1	77	26.7	2	5	270	0.00	30.246 

CoCoRaHS
IN-AL-39
A2 Web Hosting
Creative Commons License
GoDaddy
search engine by freefind advanced

loaded 2018-11-17 11:56:43 • last modified 2010-11-18 10:43:29
Privacy PolicyDisclaimer
• wx.awcolley.com is powered by PmWiki v.2002016 •
• all content (unless otherwise noted) © 2018 A W Colley